Powell Butte, Oregon
Current Conditions -  °F | °C
As of 9:55 PM on Wednesday 22 Oct 2014 (Local Time) from KS39 Reporting Station
Overcast Overcast  
Wind Chill: 59°   Ceiling: 4700
Heat Index: 59°   Visibility: 10mi
Dew Point: 43°   Wind: 13mph
Humidity: 55%   Direction: 190°S
Pressure: 29.84"   Gusts: 22mph
Location:  44.25°N, 121.02°W
Report Text: KS39 230455Z AUTO 19011G19KT 10SM BKN047 OVC055 15/06 A2984 RMK AO2
Loading
Personal Weather Stations






























Interactive Weather Map New forecast layout! Learn more

10-Day Weather Forecast

Advertisements
Track Severe Weather on mobile